createdAt,value
2023-04-23T00:04:04.470Z,61788.06
2023-04-23T00:09:08.793Z,61796.22
2023-04-23T00:14:12.578Z,61796.16
2023-04-23T00:19:17.639Z,61767.53
2023-04-23T00:24:21.249Z,61794.28
2023-04-23T00:29:23.670Z,61764.66
2023-04-23T00:34:28.962Z,61765.03
2023-04-23T00:39:32.620Z,61768.56
2023-04-23T00:44:35.424Z,61785.78
2023-04-23T00:49:40.002Z,61757.19
2023-04-23T00:54:44.133Z,61749.38
2023-04-23T00:59:47.907Z,61786.72
2023-04-23T01:04:52.085Z,61764.81
2023-04-23T01:09:55.095Z,61755.84
2023-04-23T01:14:57.714Z,61795.78
2023-04-23T01:20:01.800Z,61807.19
2023-04-23T01:25:08.096Z,61755.31
2023-04-23T01:30:11.506Z,61778.50
2023-04-23T01:35:14.200Z,61764.47
2023-04-23T01:40:18.523Z,61732.75
2023-04-23T01:45:21.323Z,61793.13
2023-04-23T01:50:44.923Z,61759.66
2023-04-23T01:55:49.382Z,61733.41
2023-04-23T02:00:52.386Z,61722.78
2023-04-23T02:05:55.550Z,61705.94
2023-04-23T02:10:59.577Z,61685.50
2023-04-23T02:16:02.395Z,61700.38
2023-04-23T02:21:06.685Z,61716.97
2023-04-23T02:26:10.944Z,61700.31
2023-04-23T02:31:13.806Z,61756.34
2023-04-23T02:36:17.101Z,61777.47
2023-04-23T02:41:21.627Z,61789.59
2023-04-23T02:46:24.455Z,61789.13
2023-04-23T02:51:27.398Z,61773.72
2023-04-23T02:56:31.411Z,61817.91
2023-04-23T03:01:35.605Z,61824.22
2023-04-23T03:06:38.284Z,61804.06
2023-04-23T03:11:42.329Z,61791.66
2023-04-23T03:16:45.138Z,61830.38
2023-04-23T03:21:47.816Z,61808.53
2023-04-23T03:26:51.799Z,61789.31
2023-04-23T03:31:54.429Z,61842.34
2023-04-23T03:36:57.054Z,61819.28
2023-04-23T03:42:01.999Z,61838.66
2023-04-23T03:47:04.783Z,61876.00
2023-04-23T03:52:07.387Z,61881.19
2023-04-23T03:57:11.982Z,61850.56
2023-04-23T04:02:14.732Z,61840.53
2023-04-23T04:07:18.565Z,61833.34
2023-04-23T04:12:22.894Z,61834.41
2023-04-23T04:17:25.618Z,61813.75
2023-04-23T04:22:28.468Z,61845.53
2023-04-23T04:27:33.839Z,61859.13
2023-04-23T04:32:38.828Z,61860.53
2023-04-23T04:37:43.984Z,61815.28
2023-04-23T04:42:48.376Z,61862.38
2023-04-23T04:47:51.615Z,61866.44
2023-04-23T04:52:55.256Z,61840.81
2023-04-23T04:57:59.192Z,61863.03
2023-04-23T05:03:02.111Z,61895.53
2023-04-23T05:08:04.923Z,61914.00
2023-04-23T05:13:08.885Z,61883.56
2023-04-23T05:18:11.971Z,61894.47
2023-04-23T05:23:14.748Z,61877.66
2023-04-23T05:28:19.072Z,61936.78
2023-04-23T05:33:21.733Z,61916.88
2023-04-23T05:38:25.525Z,61931.47
2023-04-23T05:43:30.590Z,61946.31
2023-04-23T05:48:33.236Z,61970.59
2023-04-23T05:53:36.033Z,61970.53
2023-04-23T05:58:40.100Z,62003.56
2023-04-23T06:03:45.422Z,62025.69
2023-04-23T06:08:48.379Z,61965.94
2023-04-23T06:13:52.380Z,61998.19
2023-04-23T06:18:56.198Z,61983.94
2023-04-23T06:23:58.913Z,61975.13
2023-04-23T06:29:02.961Z,61976.84
2023-04-23T06:34:05.735Z,62018.19
2023-04-23T06:39:10.488Z,62037.41
2023-04-23T06:44:14.594Z,62080.94
2023-04-23T06:49:17.252Z,62252.00
2023-04-23T06:54:20.006Z,62501.22
2023-04-23T06:59:24.523Z,62536.78
2023-04-23T07:04:27.463Z,62603.47
2023-04-23T07:09:30.950Z,62641.94
2023-04-23T07:14:36.915Z,62656.03
2023-04-23T07:19:39.835Z,62719.53
2023-04-23T07:24:43.681Z,62792.81
2023-04-23T07:29:47.954Z,62792.97
2023-04-23T07:34:51.808Z,62894.03
2023-04-23T07:39:55.547Z,62921.91
2023-04-23T07:44:59.551Z,62906.06
2023-04-23T07:50:02.324Z,62939.69
2023-04-23T07:55:07.335Z,62947.19
2023-04-23T08:00:12.723Z,62919.97
2023-04-23T08:05:15.592Z,63013.28
2023-04-23T08:10:20.642Z,63033.53
2023-04-23T08:15:24.862Z,63070.34
2023-04-23T08:20:27.895Z,63071.53
2023-04-23T08:25:30.835Z,63128.13
2023-04-23T08:30:35.075Z,63089.97
2023-04-23T08:35:37.862Z,63213.41
2023-04-23T08:40:42.718Z,63176.06
2023-04-23T08:45:48.924Z,63078.03
2023-04-23T08:50:51.655Z,63203.78
2023-04-23T08:55:55.736Z,63299.81
2023-04-23T09:01:00.424Z,63179.44
2023-04-23T09:06:03.282Z,63299.56
2023-04-23T09:11:07.187Z,63339.75
2023-04-23T09:16:11.428Z,63248.69
2023-04-23T09:21:15.291Z,63281.13
2023-04-23T09:26:21.765Z,63286.38
2023-04-23T09:31:26.411Z,63383.94
2023-04-23T09:36:29.225Z,63330.59
2023-04-23T09:41:32.272Z,63281.41
2023-04-23T09:46:38.093Z,63247.00
2023-04-23T09:51:42.583Z,63182.97
2023-04-23T09:56:46.802Z,63271.53
2023-04-23T10:01:51.307Z,63278.59
2023-04-23T10:07:13.757Z,63329.63
2023-04-23T10:12:41.094Z,63156.97
2023-04-23T10:17:47.867Z,63062.22
2023-04-23T10:22:51.132Z,63053.84
2023-04-23T10:27:54.879Z,63201.41
2023-04-23T10:33:02.594Z,62985.03
2023-04-23T10:38:05.931Z,62916.50
2023-04-23T10:43:09.360Z,63098.69
2023-04-23T10:48:13.574Z,63225.50
2023-04-23T10:53:22.459Z,63232.72
2023-04-23T10:58:25.387Z,63199.66
2023-04-23T11:03:32.135Z,63083.19
2023-04-23T11:08:37.500Z,63015.22
2023-04-23T11:13:53.403Z,63156.97
2023-04-23T11:19:02.969Z,63249.06
2023-04-23T11:24:08.502Z,63020.72
2023-04-23T11:29:15.587Z,63033.44
2023-04-23T11:34:20.656Z,63084.84
2023-04-23T11:39:26.224Z,63160.09
2023-04-23T11:44:30.632Z,63106.91
2023-04-23T11:49:34.915Z,63124.91
2023-04-23T11:54:40.686Z,63073.16
2023-04-23T11:59:43.704Z,63024.47
2023-04-23T12:04:48.062Z,63005.31
2023-04-23T12:09:50.788Z,62965.88
2023-04-23T12:15:04.014Z,63036.03
2023-04-23T12:20:12.788Z,63039.25
2023-04-23T12:25:16.038Z,63049.28
2023-04-23T12:30:19.144Z,63063.47
2023-04-23T12:35:24.028Z,63022.03
2023-04-23T12:40:28.293Z,62974.19
2023-04-23T12:45:38.352Z,62908.59
2023-04-23T12:50:42.792Z,62830.63
2023-04-23T12:55:45.798Z,62782.88
2023-04-23T13:00:48.795Z,62756.75
2023-04-23T13:05:52.940Z,62882.31
2023-04-23T13:10:55.723Z,62979.31
2023-04-23T13:15:58.363Z,62957.28
2023-04-23T13:21:02.432Z,62964.31
2023-04-23T13:26:06.695Z,62964.13
2023-04-23T13:31:12.061Z,63153.19
2023-04-23T13:36:20.068Z,63081.78
2023-04-23T13:41:22.900Z,63008.53
2023-04-23T13:46:25.721Z,62995.38
2023-04-23T13:51:35.178Z,62993.22
2023-04-23T13:56:39.582Z,63018.22
2023-04-23T14:01:42.381Z,63092.00
2023-04-23T14:06:46.666Z,63083.84
2023-04-23T14:11:49.444Z,62990.69
2023-04-23T14:16:52.155Z,63055.84
2023-04-23T14:21:56.027Z,63121.44
2023-04-23T14:26:58.675Z,63076.06
2023-04-23T14:32:01.463Z,63041.47
2023-04-23T14:37:05.572Z,63046.56
2023-04-23T14:42:08.240Z,62988.66
2023-04-23T14:47:11.975Z,62961.16
2023-04-23T14:52:16.055Z,62923.88
2023-04-23T14:57:18.724Z,62950.81
2023-04-23T15:02:22.515Z,62938.75
2023-04-23T15:07:26.875Z,62874.88
2023-04-23T15:12:45.237Z,62883.78
2023-04-23T15:17:48.358Z,62854.63
2023-04-23T15:22:52.450Z,62838.28
2023-04-23T15:27:57.802Z,62822.38
2023-04-23T15:33:01.740Z,62817.13
2023-04-23T15:38:09.853Z,62804.00
2023-04-23T15:43:13.440Z,62799.06
2023-04-23T15:48:16.762Z,62826.50
2023-04-23T15:53:22.879Z,62830.44
2023-04-23T15:58:25.671Z,62803.06
2023-04-23T16:03:28.566Z,62782.94
2023-04-23T16:08:32.911Z,62788.09
2023-04-23T16:13:35.876Z,62775.09
2023-04-23T16:18:38.393Z,62702.91
2023-04-23T16:23:42.439Z,62656.88
2023-04-23T16:28:51.982Z,62361.81
2023-04-23T16:34:04.171Z,62269.16
2023-04-23T16:39:08.077Z,62203.50
2023-04-23T16:44:13.771Z,62205.00
2023-04-23T16:49:16.737Z,62210.97
2023-04-23T16:54:20.943Z,62166.75
2023-04-23T16:59:23.706Z,62179.22
2023-04-23T17:04:26.652Z,62170.91
2023-04-23T17:09:31.687Z,62178.16
2023-04-23T17:14:34.519Z,62136.94
2023-04-23T17:19:37.331Z,62197.09
2023-04-23T17:24:41.816Z,62185.00
2023-04-23T17:29:45.981Z,62184.59
2023-04-23T17:34:56.421Z,62179.91
2023-04-23T17:40:09.822Z,62144.81
2023-04-23T17:45:12.883Z,62139.09
2023-04-23T17:50:15.638Z,62149.53
2023-04-23T17:55:21.974Z,62187.75
2023-04-23T18:00:25.180Z,62193.56
2023-04-23T18:05:28.292Z,62175.28
2023-04-23T18:10:32.595Z,62163.66
2023-04-23T18:15:35.730Z,62164.19
2023-04-23T18:20:41.432Z,62179.09
2023-04-23T18:25:45.613Z,62133.09
2023-04-23T18:30:48.599Z,62156.00
2023-04-23T18:35:53.245Z,62105.75
2023-04-23T18:40:59.134Z,62113.91
2023-04-23T18:46:02.040Z,62136.19
2023-04-23T18:51:07.245Z,62131.94
2023-04-23T18:56:11.442Z,62101.59
2023-04-23T19:01:14.741Z,62107.25
2023-04-23T19:06:17.453Z,62081.56
2023-04-23T19:11:22.194Z,62093.41
2023-04-23T19:16:28.519Z,62112.56
2023-04-23T19:21:31.747Z,62096.91
2023-04-23T19:26:35.979Z,62094.31
2023-04-23T19:31:38.741Z,62106.88
2023-04-23T19:36:41.487Z,62106.44
2023-04-23T19:41:45.990Z,62097.69
2023-04-23T19:46:48.700Z,62105.00
2023-04-23T19:51:53.928Z,62081.44
2023-04-23T19:56:57.949Z,62112.34
2023-04-23T20:02:00.684Z,62120.75
2023-04-23T20:07:03.534Z,62142.78
2023-04-23T20:12:08.204Z,62103.00
2023-04-23T20:17:11.179Z,62102.47
2023-04-23T20:22:13.748Z,62134.69
2023-04-23T20:27:17.803Z,62068.41
2023-04-23T20:32:20.710Z,62099.69
2023-04-23T20:37:23.417Z,62102.88
2023-04-23T20:42:29.089Z,62094.69
2023-04-23T20:47:32.611Z,62150.78
2023-04-23T20:52:35.641Z,62137.31
2023-04-23T20:57:42.113Z,62119.69
2023-04-23T21:02:45.484Z,62116.59
2023-04-23T21:07:50.487Z,62147.66
2023-04-23T21:12:54.723Z,62129.00
2023-04-23T21:17:57.679Z,62107.41
2023-04-23T21:23:02.340Z,62073.09
2023-04-23T21:28:10.223Z,62041.59
2023-04-23T21:33:14.265Z,62028.50
2023-04-23T21:38:17.597Z,62004.03
2023-04-23T21:43:21.669Z,62029.97
2023-04-23T21:48:24.432Z,61982.72
2023-04-23T21:53:27.314Z,61989.19
2023-04-23T21:58:32.572Z,61958.94
2023-04-23T22:03:38.750Z,61925.88
2023-04-23T22:08:44.656Z,61886.53
2023-04-23T22:13:49.661Z,61893.81
2023-04-23T22:18:52.432Z,61932.25
2023-04-23T22:23:56.102Z,61918.03
2023-04-23T22:29:00.260Z,61898.25
2023-04-23T22:34:02.861Z,61908.13
2023-04-23T22:39:05.893Z,61917.91
2023-04-23T22:44:10.407Z,61907.47
2023-04-23T22:49:14.286Z,61910.53
2023-04-23T22:54:17.305Z,61909.47
2023-04-23T22:59:21.545Z,61910.44
2023-04-23T23:04:24.194Z,61890.06
2023-04-23T23:09:27.948Z,61854.59
2023-04-23T23:14:33.923Z,61879.97
2023-04-23T23:19:38.247Z,61921.66
2023-04-23T23:24:41.251Z,61875.41
2023-04-23T23:29:46.313Z,61884.09
2023-04-23T23:34:55.260Z,61888.69
2023-04-23T23:40:01.832Z,61883.63
2023-04-23T23:45:07.157Z,61885.69
2023-04-23T23:50:12.385Z,61885.16
2023-04-23T23:55:16.808Z,61875.22
